Time;durP1;ratioP1;P1;durP2;ratioP2;P2;SDS_P1;SDS_P2;PMS_P1;PMS_P2;Temp;Humidity;BMP_temperature;BMP_pressure;BME280_temperature;BME280_humidity;BME280_pressure;Samples;Min_cycle;Max_cycle;Signal;HPM_P1;HPM_P2
2024/04/14 00:01:29;;;;;;;18.45;6.07;;;;;;;13.32;100.00;100756.22;5309663;26;20007;-75
2024/04/14 00:03:56;;;;;;;14.95;6.20;;;;;;;13.09;100.00;100732.13;5335676;26;19993;-73
2024/04/14 00:06:22;;;;;;;20.08;5.32;;;;;;;13.20;100.00;100742.38;5335791;26;20096;-74
2024/04/14 00:08:52;;;;;;;14.32;5.97;;;;;;;13.16;100.00;100722.34;5322833;26;19997;-75
2024/04/14 00:11:17;;;;;;;19.42;6.25;;;;;;;13.31;100.00;100703.63;5317895;26;20002;-74
2024/04/14 00:13:43;;;;;;;16.13;5.45;;;;;;;13.31;100.00;100700.97;5324331;26;20026;-76
2024/04/14 00:16:08;;;;;;;12.57;5.07;;;;;;;13.26;100.00;100696.09;5331440;26;20006;-75
2024/04/14 00:18:33;;;;;;;18.07;5.23;;;;;;;13.07;100.00;100675.19;5303587;26;20017;-73
2024/04/14 00:21:00;;;;;;;16.37;5.43;;;;;;;13.07;100.00;100669.81;5313169;26;20009;-75
2024/04/14 00:23:25;;;;;;;38.20;8.40;;;;;;;13.05;100.00;100683.38;5302095;26;20084;-74
2024/04/14 00:25:52;;;;;;;16.55;5.18;;;;;;;12.97;100.00;100662.03;5320968;26;20020;-74
2024/04/14 00:28:17;;;;;;;18.47;4.47;;;;;;;12.93;100.00;100666.06;5337245;26;20019;-74
2024/04/14 00:30:42;;;;;;;20.03;4.53;;;;;;;12.95;100.00;100669.41;5322977;26;20235;-75
2024/04/14 00:33:08;;;;;;;14.13;4.53;;;;;;;12.93;100.00;100655.34;5323784;26;20016;-75
2024/04/14 00:35:33;;;;;;;14.07;3.93;;;;;;;12.96;100.00;100654.16;5336624;26;20049;-76
2024/04/14 00:37:58;;;;;;;9.40;4.27;;;;;;;12.99;100.00;100649.25;5336155;26;20723;-75
2024/04/14 00:40:24;;;;;;;14.77;4.97;;;;;;;12.96;100.00;100660.34;5302748;26;20012;-75
2024/04/14 00:42:58;;;;;;;15.70;4.20;;;;;;;13.02;100.00;100645.41;5326537;26;20098;-75
2024/04/14 00:45:26;;;;;;;13.63;5.00;;;;;;;12.99;100.00;100610.91;5324118;26;20012;-75
2024/04/14 00:47:56;;;;;;;17.23;4.60;;;;;;;13.06;100.00;100585.91;5337098;26;20455;-75
2024/04/14 00:50:23;;;;;;;13.25;4.68;;;;;;;12.96;100.00;100588.00;5321889;26;20015;-75
2024/04/14 00:52:50;;;;;;;17.00;4.88;;;;;;;13.06;100.00;100612.72;5310708;26;20392;-74
2024/04/14 00:55:16;;;;;;;12.65;4.00;;;;;;;13.00;100.00;100605.38;5328175;26;20012;-74
2024/04/14 00:57:42;;;;;;;;;;;;;;;12.98;100.00;100631.53;5313946;26;20415;-75
2024/04/14 01:00:08;;;;;;;13.95;3.83;;;;;;;12.92;100.00;100602.75;5322123;26;19945;-75
2024/04/14 01:02:37;;;;;;;13.20;4.00;;;;;;;12.97;100.00;100620.97;5349318;26;20011;-74
2024/04/14 01:05:02;;;;;;;15.70;4.72;;;;;;;12.99;100.00;100640.38;5306351;26;20016;-75
2024/04/14 01:07:28;;;;;;;17.98;4.93;;;;;;;12.95;100.00;100652.50;5322393;26;20001;-75
2024/04/14 01:09:54;;;;;;;13.98;4.88;;;;;;;12.93;100.00;100641.97;5334995;26;20456;-75
2024/04/14 01:12:19;;;;;;;10.73;4.43;;;;;;;12.88;100.00;100649.72;5333559;26;20004;-75
2024/04/14 01:14:44;;;;;;;26.07;6.03;;;;;;;12.80;100.00;100622.97;5335588;26;20008;-75
2024/04/14 01:17:10;;;;;;;13.47;4.90;;;;;;;12.72;100.00;100610.47;5331022;26;20005;-76
2024/04/14 01:19:35;;;;;;;15.70;5.30;;;;;;;12.67;100.00;100586.09;5305148;26;20021;-75
2024/04/14 01:22:01;;;;;;;20.83;5.70;;;;;;;12.67;100.00;100637.81;5303504;26;20041;-74
2024/04/14 01:24:26;;;;;;;23.58;6.55;;;;;;;12.72;100.00;100664.06;5362284;26;20001;-74
2024/04/14 01:26:52;;;;;;;21.13;8.47;;;;;;;12.67;100.00;100666.44;5321963;26;20029;-75
2024/04/14 01:29:18;;;;;;;24.67;8.40;;;;;;;12.72;100.00;100656.03;5333564;26;20297;-75
2024/04/14 01:31:44;;;;;;;;;;;;;;;12.66;100.00;100636.13;5336879;26;20475;-75
2024/04/14 01:34:09;;;;;;;24.40;6.40;;;;;;;12.67;100.00;100659.22;5319367;26;19926;-75
2024/04/14 01:36:34;;;;;;;27.23;6.13;;;;;;;12.65;100.00;100655.06;5305538;26;20563;-75
2024/04/14 01:39:00;;;;;;;13.80;5.32;;;;;;;12.67;100.00;100636.97;5299731;26;20002;-75
2024/04/14 01:41:26;;;;;;;20.93;6.00;;;;;;;12.58;100.00;100630.00;5321413;26;20011;-75
2024/04/14 01:43:51;;;;;;;15.63;5.53;;;;;;;12.58;100.00;100633.50;5335431;26;20001;-75
2024/04/14 01:46:17;;;;;;;13.80;5.33;;;;;;;12.50;100.00;100601.44;5321026;26;20444;-76
2024/04/14 01:48:42;;;;;;;13.40;5.63;;;;;;;12.40;100.00;100587.44;5333766;26;20013;-75
2024/04/14 01:51:07;;;;;;;26.60;7.07;;;;;;;12.50;100.00;100581.84;5330357;26;20016;-77
2024/04/14 01:53:33;;;;;;;11.83;5.20;;;;;;;12.50;100.00;100568.47;5326795;26;20009;-75
2024/04/14 01:55:59;;;;;;;14.30;4.85;;;;;;;12.45;100.00;100579.72;5300943;26;20030;-74
2024/04/14 01:58:26;;;;;;;12.60;4.72;;;;;;;12.41;100.00;100530.22;5302469;26;19998;-74
2024/04/14 02:00:52;;;;;;;15.63;4.70;;;;;;;12.27;100.00;100437.31;5321409;26;19997;-74
2024/04/14 02:03:17;;;;;;;13.70;3.90;;;;;;;12.21;100.00;100396.88;5336011;26;20351;-75
2024/04/14 02:05:42;;;;;;;11.27;3.57;;;;;;;12.15;100.00;100354.81;5335254;26;20008;-75
2024/04/14 02:08:08;;;;;;;11.93;4.32;;;;;;;12.06;100.00;100329.13;5335689;26;20000;-75
2024/04/14 02:10:39;;;;;;;15.67;4.10;;;;;;;11.89;100.00;100331.09;5334171;26;20463;-75
2024/04/14 02:13:04;;;;;;;17.50;4.57;;;;;;;11.82;100.00;100346.19;5330991;26;20008;-76
2024/04/14 02:15:30;;;;;;;22.13;4.70;;;;;;;11.67;100.00;100372.06;5322131;26;20009;-75
2024/04/14 02:17:55;;;;;;;14.60;3.50;;;;;;;11.58;100.00;100352.56;5319727;26;20034;-74
2024/04/14 02:20:20;;;;;;;10.90;3.10;;;;;;;11.45;100.00;100290.84;5308194;26;20033;-74
2024/04/14 02:22:46;;;;;;;12.30;3.10;;;;;;;11.49;100.00;100297.50;5322986;26;20465;-75
2024/04/14 02:25:11;;;;;;;9.98;2.45;;;;;;;11.45;100.00;100238.25;5317149;26;20008;-75
2024/04/14 02:27:37;;;;;;;10.43;2.60;;;;;;;11.35;100.00;100152.13;5323450;26;20008;-76
2024/04/14 02:30:02;;;;;;;15.93;3.47;;;;;;;11.30;100.00;100101.06;5300728;26;20625;-75
2024/04/14 02:32:28;;;;;;;14.95;2.42;;;;;;;11.35;100.00;100091.47;5322513;26;20078;-75
2024/04/14 02:34:54;;;;;;;;;;;;;;;11.36;100.00;100143.94;5323259;26;20036;-75
2024/04/14 02:37:19;;;;;;;11.15;2.35;;;;;;;11.33;100.00;100085.50;5308080;26;20499;-75
2024/04/14 02:39:45;;;;;;;12.83;2.20;;;;;;;11.26;100.00;100040.97;5333985;26;19993;-73
2024/04/14 02:42:10;;;;;;;14.83;3.17;;;;;;;11.04;100.00;100034.72;5338931;26;20004;-78
2024/04/14 02:44:35;;;;;;;14.90;3.90;;;;;;;11.05;100.00;99993.63;5329285;26;19998;-79
2024/04/14 02:47:01;;;;;;;13.10;2.33;;;;;;;10.85;100.00;99881.19;5332537;26;20008;-76
2024/04/14 02:49:28;;;;;;;11.00;2.40;;;;;;;10.82;100.00;99753.41;5338535;26;20374;-74
2024/04/14 02:51:54;;;;;;;10.30;1.60;;;;;;;10.73;100.00;99676.09;5326858;26;20082;-76
2024/04/14 02:54:19;;;;;;;10.63;2.38;;;;;;;10.80;100.00;99665.47;5326834;26;20505;-75
2024/04/14 02:56:45;;;;;;;10.18;2.83;;;;;;;10.65;100.00;99608.63;5338613;26;20074;-73
2024/04/14 02:59:10;;;;;;;9.83;2.67;;;;;;;10.68;100.00;99593.09;5324657;26;20133;-78
2024/04/14 03:01:35;;;;;;;8.77;2.17;;;;;;;10.69;100.00;99631.28;5338874;26;20005;-78
2024/04/14 03:04:01;;;;;;;11.17;2.10;;;;;;;10.52;100.00;99575.47;5338907;26;20078;-74
2024/04/14 03:06:26;;;;;;;10.17;2.20;;;;;;;10.57;100.00;99553.56;5309419;26;20537;-75
2024/04/14 03:08:52;;;;;;;9.73;1.80;;;;;;;10.57;100.00;99487.66;5332636;26;20267;-74
2024/04/14 03:11:17;;;;;;;11.67;2.73;;;;;;;10.34;100.00;99473.72;5336700;26;20074;-73
2024/04/14 03:13:42;;;;;;;12.67;2.03;;;;;;;10.20;100.00;99411.38;5337163;26;20005;-75
2024/04/14 03:16:09;;;;;;;10.40;2.30;;;;;;;10.06;100.00;99425.63;5336468;26;20044;-75
2024/04/14 03:18:34;;;;;;;9.45;1.77;;;;;;;10.05;100.00;99485.31;5336618;26;19993;-73
2024/04/14 03:21:02;;;;;;;12.10;2.50;;;;;;;10.07;100.00;99556.09;5338443;26;20019;-76
2024/04/14 03:23:28;;;;;;;10.75;2.15;;;;;;;10.10;100.00;99648.25;5324729;26;20040;-74
2024/04/14 03:25:54;;;;;;;;;;;;;;;10.01;100.00;99639.50;5311623;26;20008;-73
2024/04/14 03:28:25;;;;;;;14.40;2.30;;;;;;;9.94;100.00;99618.09;5349918;26;19933;-72
2024/04/14 03:30:51;;;;;;;18.80;3.17;;;;;;;9.89;100.00;99625.00;5324647;26;20016;-76
2024/04/14 03:33:17;;;;;;;8.70;1.75;;;;;;;9.84;100.00;99622.06;5336757;26;20001;-74
2024/04/14 03:35:42;;;;;;;;;;;;;;;9.71;100.00;99508.91;5324266;26;20004;-73
2024/04/14 03:38:08;;;;;;;11.93;2.67;;;;;;;9.66;100.00;99433.22;5326040;26;20381;-73
2024/04/14 03:40:35;;;;;;;17.70;2.45;;;;;;;9.78;100.00;99471.69;5330413;26;20419;-76
2024/04/14 03:43:00;;;;;;;12.10;2.83;;;;;;;9.81;100.00;99531.78;5332602;26;20037;-74
2024/04/14 03:45:26;;;;;;;16.10;2.40;;;;;;;9.69;100.00;99596.25;5308953;26;20009;-72
2024/04/14 03:47:52;;;;;;;18.60;2.80;;;;;;;9.67;100.00;99626.78;5326137;26;19997;-73
2024/04/14 03:50:18;;;;;;;;;;;;;;;9.45;100.00;99537.91;5321044;26;20895;-78
2024/04/14 03:52:44;;;;;;;12.00;2.40;;;;;;;9.46;100.00;99520.94;5325928;26;19926;-73
2024/04/14 03:55:09;;;;;;;16.55;2.63;;;;;;;9.44;100.00;99621.53;5337033;26;20371;-73
2024/04/14 03:57:34;;;;;;;9.80;3.67;;;;;;;9.36;100.00;99666.88;5337836;26;19997;-75
2024/04/14 04:00:02;;;;;;;11.55;2.17;;;;;;;9.19;100.00;99664.34;5337354;26;20014;-77
2024/04/14 04:02:27;;;;;;;9.40;1.90;;;;;;;9.28;100.00;99697.91;5317482;26;20002;-73
2024/04/14 04:04:52;;;;;;;13.30;3.20;;;;;;;9.25;100.00;99658.31;5313863;26;19996;-75
2024/04/14 04:07:18;;;;;;;12.47;3.27;;;;;;;9.13;100.00;99661.59;5319734;26;20080;-73
2024/04/14 04:09:43;;;;;;;12.67;2.77;;;;;;;8.99;100.00;99689.81;5344643;26;20001;-73
2024/04/14 04:12:09;;;;;;;13.07;2.33;;;;;;;9.07;100.00;99668.47;5331461;26;20227;-75
2024/04/14 04:14:35;;;;;;;11.98;2.25;;;;;;;9.17;100.00;99663.72;5337278;26;21257;-73
2024/04/14 04:17:00;;;;;;;6.90;2.23;;;;;;;9.17;100.00;99666.38;5279118;27;20033;-76
2024/04/14 04:19:25;;;;;;;11.47;2.17;;;;;;;9.01;100.00;99643.41;5302658;26;20543;-77
2024/04/14 04:21:52;;;;;;;20.10;2.30;;;;;;;9.08;100.00;99702.06;5303136;26;19997;-76
2024/04/14 04:24:17;;;;;;;15.52;2.15;;;;;;;9.08;100.00;99755.31;5344257;26;20263;-73
2024/04/14 04:26:43;;;;;;;9.05;2.45;;;;;;;9.13;100.00;99811.56;5316992;26;20344;-75
2024/04/14 04:29:08;;;;;;;15.00;2.67;;;;;;;9.06;100.00;99831.88;5334988;26;19997;-73
2024/04/14 04:31:34;;;;;;;18.10;2.23;;;;;;;8.97;100.00;99859.56;5336907;26;20074;-76
2024/04/14 04:33:59;;;;;;;16.50;2.27;;;;;;;8.98;100.00;99959.72;5337909;26;19993;-75
2024/04/14 04:36:24;;;;;;;14.63;2.03;;;;;;;8.90;100.00;99963.25;5303096;26;20889;-73
2024/04/14 04:38:53;;;;;;;17.42;2.47;;;;;;;8.99;100.00;99969.34;5316138;26;20001;-78
2024/04/14 04:41:19;;;;;;;14.52;3.15;;;;;;;8.82;100.00;100011.97;5304827;26;20013;-73
2024/04/14 04:43:44;;;;;;;9.13;2.13;;;;;;;8.76;100.00;100081.06;5312490;26;20000;-73
2024/04/14 04:46:09;;;;;;;15.33;3.60;;;;;;;8.74;100.00;100165.56;5334695;26;20350;-75
2024/04/14 04:48:35;;;;;;;11.03;2.00;;;;;;;8.86;100.00;100201.50;5337525;26;20052;-73
2024/04/14 04:51:00;;;;;;;12.83;2.70;;;;;;;8.93;100.00;100148.44;5337240;26;20235;-75
2024/04/14 04:53:25;;;;;;;7.43;1.47;;;;;;;9.01;100.00;100201.66;5335406;26;20720;-77
2024/04/14 04:55:51;;;;;;;15.80;2.60;;;;;;;9.02;100.00;100198.00;5322040;26;20464;-75
2024/04/14 04:58:16;;;;;;;15.40;3.67;;;;;;;9.13;100.00;100200.34;5322255;26;20025;-73
2024/04/14 05:00:52;;;;;;;22.50;2.97;;;;;;;9.22;100.00;100231.28;5307327;26;19998;-74
2024/04/14 05:03:17;;;;;;;19.17;2.58;;;;;;;9.18;100.00;100176.72;5303739;26;20005;-73
2024/04/14 05:05:53;;;;;;;14.90;3.00;;;;;;;9.20;100.00;100158.75;5312861;26;20453;-75
2024/04/14 05:08:18;;;;;;;14.93;2.35;;;;;;;9.15;100.00;100137.06;5334158;26;20001;-75
2024/04/14 05:10:44;;;;;;;20.17;3.73;;;;;;;9.04;100.00;100127.63;5319731;26;20034;-75
2024/04/14 05:13:09;;;;;;;13.80;2.80;;;;;;;9.03;100.00;100054.03;5321549;26;20005;-73
2024/04/14 05:15:34;;;;;;;13.23;3.03;;;;;;;8.95;100.00;100063.91;5333626;26;20005;-73
2024/04/14 05:18:00;;;;;;;17.87;2.83;;;;;;;8.98;100.00;100106.16;5309451;26;20001;-75
2024/04/14 05:20:25;;;;;;;13.45;2.88;;;;;;;8.82;100.00;100005.84;5333491;26;20000;-78
2024/04/14 05:22:50;;;;;;;16.80;2.77;;;;;;;8.97;100.00;100004.16;5312410;26;20006;-77
2024/04/14 05:25:16;;;;;;;14.23;2.30;;;;;;;9.06;100.00;99999.63;5303916;26;20008;-74
2024/04/14 05:27:41;;;;;;;9.60;2.20;;;;;;;9.21;100.00;100048.53;5315642;26;20049;-73
2024/04/14 05:30:07;;;;;;;11.85;1.77;;;;;;;9.10;100.00;99950.34;5331151;26;20000;-73
2024/04/14 05:32:32;;;;;;;13.15;2.97;;;;;;;9.03;100.00;99896.13;5302655;26;20598;-73
2024/04/14 05:34:57;;;;;;;17.13;2.07;;;;;;;9.25;100.00;99910.53;5317079;26;20009;-71
2024/04/14 05:37:23;;;;;;;24.13;3.30;;;;;;;9.26;100.00;99944.13;5332950;26;20020;-73
2024/04/14 05:39:48;;;;;;;22.03;2.57;;;;;;;9.25;100.00;99948.63;5325396;26;20033;-72
2024/04/14 05:42:13;;;;;;;11.70;2.17;;;;;;;9.37;100.00;99933.09;5307066;26;20356;-71
2024/04/14 05:44:46;;;;;;;13.95;2.97;;;;;;;9.69;100.00;99949.88;5306921;26;20005;-72
2024/04/14 05:47:11;;;;;;;16.00;2.72;;;;;;;10.52;100.00;99946.44;5321567;26;20012;-72
2024/04/14 05:49:37;;;;;;;24.30;3.00;;;;;;;11.32;100.00;99834.50;5333009;26;20029;-72
2024/04/14 05:52:04;;;;;;;12.73;2.47;;;;;;;11.89;100.00;99642.88;5323293;26;20006;-71
2024/04/14 05:54:29;;;;;;;18.13;2.28;;;;;;;11.62;100.00;99349.47;5333114;26;20214;-71
2024/04/14 05:56:57;;;;;;;12.20;2.58;;;;;;;12.27;100.00;99275.81;5333970;26;20012;-71
2024/04/14 05:59:22;;;;;;;11.80;2.40;;;;;;;12.55;100.00;99225.53;5324020;26;20033;-75
2024/04/14 06:01:48;;;;;;;16.83;3.57;;;;;;;12.99;100.00;99189.00;5335443;26;20200;-73
2024/04/14 06:04:13;;;;;;;16.35;2.17;;;;;;;12.91;100.00;99009.00;5326640;26;20012;-72
2024/04/14 06:06:39;;;;;;;14.07;2.43;;;;;;;12.80;100.00;98841.81;5333579;26;20001;-72
2024/04/14 06:09:04;;;;;;;14.80;2.55;;;;;;;12.38;100.00;98906.69;5337952;26;20574;-71
2024/04/14 06:11:30;;;;;;;13.90;2.60;;;;;;;12.78;100.00;99034.03;5311095;26;20002;-74
2024/04/14 06:13:55;;;;;;;11.70;1.97;;;;;;;12.55;99.52;98840.03;5332323;26;20005;-76
2024/04/14 06:16:20;;;;;;;14.10;2.90;;;;;;;12.80;100.00;99024.75;5328079;26;20004;-75
2024/04/14 06:18:46;;;;;;;12.97;4.00;;;;;;;12.81;98.22;98935.34;5316350;26;20282;-73
2024/04/14 06:21:11;;;;;;;16.67;3.73;;;;;;;13.53;97.28;99087.56;5336051;26;20001;-72
2024/04/14 06:23:37;;;;;;;15.67;2.53;;;;;;;13.09;94.99;98834.91;5316807;26;20001;-73
2024/04/14 06:26:03;;;;;;;11.93;2.50;;;;;;;13.55;94.65;98902.38;5331184;26;20071;-72
2024/04/14 06:28:32;;;;;;;10.98;2.58;;;;;;;13.51;93.12;98835.81;5321416;26;20504;-73
2024/04/14 06:30:57;;;;;;;15.73;2.20;;;;;;;13.57;93.01;98933.28;5309641;26;20449;-72
2024/04/14 06:33:22;;;;;;;12.77;2.40;;;;;;;12.59;94.32;98915.38;5320003;26;20012;-72
2024/04/14 06:35:51;;;;;;;10.90;2.57;;;;;;;12.83;95.67;99134.13;5312226;26;20013;-71
2024/04/14 06:38:17;;;;;;;17.20;2.47;;;;;;;13.32;93.72;99112.13;5322029;26;20061;-72
2024/04/14 06:40:42;;;;;;;19.63;3.55;;;;;;;13.09;92.48;98980.38;5311300;26;20017;-72
2024/04/14 06:43:08;;;;;;;22.07;2.43;;;;;;;13.53;94.45;99291.34;5325361;26;20008;-72
2024/04/14 06:45:33;;;;;;;17.75;2.40;;;;;;;12.65;90.64;98711.84;5337090;26;20012;-74
2024/04/14 06:48:01;;;;;;;18.33;2.80;;;;;;;11.96;92.09;98825.34;5336466;26;20009;-74
2024/04/14 06:50:26;;;;;;;18.23;3.80;;;;;;;11.70;94.96;99014.28;5319867;26;19997;-72
2024/04/14 06:52:52;;;;;;;15.15;3.55;;;;;;;12.31;94.42;99167.34;5318724;26;20468;-72
2024/04/14 06:55:18;;;;;;;12.93;2.80;;;;;;;12.96;93.05;99151.13;5318406;26;20029;-72
2024/04/14 06:57:44;;;;;;;15.35;3.00;;;;;;;11.93;93.31;98935.44;5304293;26;19997;-74
2024/04/14 07:00:11;;;;;;;13.27;3.35;;;;;;;12.24;95.74;99240.44;5314747;26;20024;-73
2024/04/14 07:02:36;;;;;;;12.07;3.78;;;;;;;11.75;95.77;99142.81;5311581;26;20744;-72
2024/04/14 07:05:02;;;;;;;20.50;2.50;;;;;;;12.51;96.61;99392.94;5309731;26;20005;-73
2024/04/14 07:07:30;;;;;;;15.00;2.83;;;;;;;12.75;92.65;99152.28;5330534;26;20005;-73
2024/04/14 07:09:56;;;;;;;11.80;3.25;;;;;;;12.92;92.30;99206.97;5303993;26;20001;-72
2024/04/14 07:12:21;;;;;;;15.80;3.25;;;;;;;12.81;90.66;99010.31;5305551;26;20002;-73
2024/04/14 07:14:47;;;;;;;14.53;2.43;;;;;;;12.19;88.92;98776.59;5328000;26;20005;-75
2024/04/14 07:17:12;;;;;;;13.07;2.60;;;;;;;12.53;92.62;99200.81;5331454;26;20001;-71
2024/04/14 07:19:39;;;;;;;15.00;2.67;;;;;;;12.98;90.93;99200.78;5331191;26;20006;-73
2024/04/14 07:22:05;;;;;;;18.83;2.97;;;;;;;13.97;89.17;99253.88;5331639;26;20083;-75
2024/04/14 07:24:30;;;;;;;11.03;2.50;;;;;;;13.33;86.99;98926.97;5307071;26;20013;-77
2024/04/14 07:26:55;;;;;;;11.40;2.20;;;;;;;13.87;86.82;99043.25;5328644;26;20508;-74
2024/04/14 07:29:21;;;;;;;13.60;2.50;;;;;;;13.41;84.79;98720.25;5333245;26;20469;-74
2024/04/14 07:31:46;;;;;;;15.13;3.27;;;;;;;12.75;84.63;98652.38;5306674;26;20005;-72
2024/04/14 07:34:12;;;;;;;15.23;2.37;;;;;;;12.73;84.25;98637.59;5303796;26;20002;-72
2024/04/14 07:36:38;;;;;;;9.98;3.13;;;;;;;13.44;85.06;98938.81;5308876;26;20019;-73
2024/04/14 07:39:03;;;;;;;14.73;3.10;;;;;;;13.96;86.25;99193.22;5336508;26;20460;-74
2024/04/14 07:41:30;;;;;;;13.70;3.27;;;;;;;13.69;83.41;98828.72;5331570;26;20341;-72
2024/04/14 07:43:56;;;;;;;16.90;2.95;;;;;;;13.22;83.51;98761.56;5327464;26;20341;-78
2024/04/14 07:46:27;;;;;;;10.32;2.22;;;;;;;13.28;83.17;98799.00;5305569;26;20016;-74
2024/04/14 07:48:52;;;;;;;15.45;3.42;;;;;;;13.49;83.09;98883.47;5326251;26;20015;-72
2024/04/14 07:51:17;;;;;;;10.20;2.47;;;;;;;14.36;84.77;99256.13;5319036;26;20008;-75
2024/04/14 07:53:43;;;;;;;23.97;5.03;;;;;;;14.19;82.70;99016.22;5310684;26;20074;-72
2024/04/14 07:56:08;;;;;;;17.00;2.30;;;;;;;13.61;78.97;98461.75;5312844;26;20465;-74
2024/04/14 07:58:33;;;;;;;14.77;2.37;;;;;;;14.14;80.45;98820.16;5301959;26;20083;-74
2024/04/14 08:00:59;;;;;;;11.60;2.07;;;;;;;14.35;79.86;98845.63;5303621;26;20054;-72
2024/04/14 08:03:24;;;;;;;15.23;2.40;;;;;;;14.19;78.78;98704.91;5317693;26;21011;-73
2024/04/14 08:05:50;;;;;;;11.80;3.03;;;;;;;13.92;79.12;98734.88;5303212;26;20013;-74
2024/04/14 08:08:15;;;;;;;13.83;4.10;;;;;;;13.64;79.49;98670.41;5308165;26;20469;-76
2024/04/14 08:10:40;;;;;;;16.73;3.10;;;;;;;13.81;80.62;98888.56;5312316;26;20008;-77
2024/04/14 08:13:06;;;;;;;11.95;2.28;;;;;;;13.71;81.47;98917.81;5309934;26;20005;-73
2024/04/14 08:15:31;;;;;;;17.87;2.90;;;;;;;14.04;83.94;99255.44;5302526;26;20012;-72
2024/04/14 08:17:57;;;;;;;15.07;2.60;;;;;;;14.43;81.59;99132.56;5302958;26;20053;-74
2024/04/14 08:20:24;;;;;;;;;;;;;;;14.95;79.06;99003.88;5304447;26;21028;-73
2024/04/14 08:22:49;;;;;;;9.68;2.63;;;;;;;14.12;76.06;98481.50;5302726;26;19927;-72
2024/04/14 08:25:15;;;;;;;11.50;2.47;;;;;;;14.09;75.70;98496.22;5315022;26;20000;-73
2024/04/14 08:27:40;;;;;;;14.85;2.75;;;;;;;14.53;75.12;98549.31;5314554;26;20001;-75
2024/04/14 08:30:07;;;;;;;6.83;1.63;;;;;;;14.90;73.27;98457.56;5326765;26;20117;-73
2024/04/14 08:32:32;;;;;;;9.65;2.67;;;;;;;15.77;72.35;98668.56;5317656;26;20025;-72
2024/04/14 08:34:58;;;;;;;8.73;1.70;;;;;;;16.05;71.31;98640.69;5319268;26;20397;-72
2024/04/14 08:37:23;;;;;;;11.68;2.88;;;;;;;16.65;68.67;98497.00;5319932;26;20016;-72
2024/04/14 08:39:49;;;;;;;10.57;2.27;;;;;;;16.85;67.11;98368.91;5312993;26;20756;-74
2024/04/14 08:42:14;;;;;;;16.50;2.77;;;;;;;16.51;67.10;98303.78;5323579;26;20271;-74
2024/04/14 08:44:40;;;;;;;8.70;1.93;;;;;;;16.03;65.80;98083.84;5308864;26;20046;-72
2024/04/14 08:47:06;;;;;;;13.17;2.40;;;;;;;15.75;65.11;98028.56;5331533;26;20272;-73
2024/04/14 08:49:32;;;;;;;9.57;2.08;;;;;;;16.76;64.87;98354.28;5321645;26;20236;-75
2024/04/14 08:51:59;;;;;;;12.10;2.33;;;;;;;17.07;64.40;98403.81;5311044;26;20460;-73
2024/04/14 08:54:24;;;;;;;10.60;2.92;;;;;;;16.48;61.22;97814.16;5323477;26;20283;-75
2024/04/14 08:56:55;;;;;;;11.02;2.03;;;;;;;16.11;62.71;98033.28;5317893;26;20000;-71
2024/04/14 08:59:22;;;;;;;10.23;1.75;;;;;;;16.47;63.68;98421.97;5330667;26;19994;-71
2024/04/14 09:01:48;;;;;;;12.90;2.15;;;;;;;16.87;63.87;98526.56;5320589;26;20025;-75
2024/04/14 09:04:15;;;;;;;7.63;1.80;;;;;;;16.68;63.80;98469.53;5332603;26;20011;-75
2024/04/14 09:06:42;;;;;;;6.68;1.60;;;;;;;17.38;61.58;98364.28;5310785;26;20022;-73
2024/04/14 09:09:08;;;;;;;6.57;1.65;;;;;;;17.14;61.04;98263.34;5313909;26;20079;-74
2024/04/14 09:11:34;;;;;;;6.10;1.42;;;;;;;17.99;59.20;98358.22;5337788;26;20448;-74
2024/04/14 09:13:59;;;;;;;;;;;;;;;17.32;59.11;98043.63;5328481;26;20858;-72
2024/04/14 09:16:25;;;;;;;9.45;1.92;;;;;;;17.47;58.52;98135.31;5323108;26;19933;-72
2024/04/14 09:18:52;;;;;;;8.47;2.23;;;;;;;17.50;58.76;98221.91;5296933;26;20040;-73
2024/04/14 09:21:17;;;;;;;8.45;1.95;;;;;;;17.70;58.10;98187.91;5332367;26;20473;-74
2024/04/14 09:23:43;;;;;;;8.43;2.10;;;;;;;17.23;55.75;97674.84;5311363;26;20088;-75
2024/04/14 09:26:08;;;;;;;11.73;3.20;;;;;;;17.95;56.31;98167.38;5311788;26;20013;-75
2024/04/14 09:28:33;;;;;;;7.77;2.40;;;;;;;17.11;56.35;97784.88;5307079;26;20009;-74
2024/04/14 09:30:59;;;;;;;10.70;2.77;;;;;;;16.51;57.49;97905.19;5292580;26;21043;-75
2024/04/14 09:33:26;;;;;;;11.73;2.03;;;;;;;15.34;59.00;97732.66;5312272;26;20001;-74
2024/04/14 09:35:51;;;;;;;11.30;1.85;;;;;;;15.91;60.96;98371.16;5320075;26;20009;-73
2024/04/14 09:38:18;;;;;;;9.60;2.27;;;;;;;16.53;60.56;98498.22;5324761;26;20588;-74
2024/04/14 09:40:44;;;;;;;6.95;1.63;;;;;;;16.50;58.37;98097.47;5318077;26;20009;-75
2024/04/14 09:43:10;;;;;;;6.88;1.50;;;;;;;17.06;57.64;98171.16;5317895;26;20083;-72
2024/04/14 09:45:36;;;;;;;;;;;;;;;17.56;57.17;98294.72;5327123;26;20098;-72
2024/04/14 09:48:03;;;;;;;8.82;2.03;;;;;;;17.41;56.70;98128.31;5329323;26;20389;-75
2024/04/14 09:50:30;;;;;;;12.02;2.13;;;;;;;17.57;57.62;98371.91;5309214;26;20009;-75
2024/04/14 09:52:56;;;;;;;6.72;2.17;;;;;;;17.21;56.75;98119.16;5322833;26;19993;-73
2024/04/14 09:55:22;;;;;;;10.63;1.80;;;;;;;16.87;57.81;98187.03;5313382;26;20048;-74
2024/04/14 09:57:48;;;;;;;6.93;1.58;;;;;;;17.12;58.52;98476.63;5311701;26;19998;-75
2024/04/14 10:00:14;;;;;;;14.15;2.97;;;;;;;18.03;59.92;98923.59;5312413;26;20335;-74
2024/04/14 10:02:47;;;;;;;11.98;3.22;;;;;;;18.45;56.79;98530.28;5322087;26;20002;-72
2024/04/14 10:05:15;;;;;;;12.80;2.88;;;;;;;17.93;55.40;98102.88;5333486;26;20360;-75
2024/04/14 10:07:41;;;;;;;5.35;1.65;;;;;;;17.96;54.69;98042.13;5320742;26;20063;-75
2024/04/14 10:10:06;;;;;;;8.18;1.90;;;;;;;15.82;55.14;97372.00;5349235;26;20009;-73
2024/04/14 10:12:33;;;;;;;7.13;1.63;;;;;;;15.50;55.07;97343.66;5331247;26;20119;-75
2024/04/14 10:15:03;;;;;;;7.10;1.45;;;;;;;16.19;55.08;97650.56;5309694;26;20650;-73
2024/04/14 10:17:28;;;;;;;6.28;1.77;;;;;;;14.90;57.34;97624.84;5313921;26;20001;-73
2024/04/14 10:20:00;;;;;;;11.80;2.13;;;;;;;14.86;59.62;98002.47;5322902;26;20002;-75
2024/04/14 10:22:49;;;;;;;9.98;2.25;;;;;;;15.56;58.04;97971.72;5307696;26;20002;-73
2024/04/14 10:25:19;;;;;;;11.05;2.35;;;;;;;16.03;59.03;98328.72;5311605;26;20237;-72
2024/04/14 10:27:45;;;;;;;8.15;1.95;;;;;;;16.78;58.27;98503.03;5329173;26;20874;-73
2024/04/14 10:30:21;;;;;;;10.27;1.92;;;;;;;17.05;57.59;98419.44;5329278;26;20012;-73
2024/04/14 10:32:47;;;;;;;8.90;1.85;;;;;;;17.73;56.37;98457.22;5313142;26;20024;-74
2024/04/14 10:35:16;;;;;;;9.88;2.00;;;;;;;16.99;56.12;98132.06;5316592;26;20052;-73
2024/04/14 10:37:53;;;;;;;12.80;2.42;;;;;;;16.06;54.48;97559.66;5318384;26;20013;-75
2024/04/14 10:40:21;;;;;;;9.23;1.60;;;;;;;16.19;55.17;97742.88;5323259;26;20685;-72
2024/04/14 10:42:46;;;;;;;;;;;;;;;15.78;56.50;97802.13;5314860;26;20006;-74
2024/04/14 10:45:12;;;;;;;13.85;2.30;;;;;;;16.55;56.68;98176.41;5318444;26;19983;-75
2024/04/14 10:47:40;;;;;;;12.45;1.83;;;;;;;16.20;55.43;97879.09;5314729;26;19997;-75
2024/04/14 10:50:05;;;;;;;10.30;1.70;;;;;;;16.59;55.99;98145.16;5326494;26;19997;-73
2024/04/14 10:52:30;;;;;;;5.67;1.40;;;;;;;16.82;55.27;98057.69;5317594;26;19997;-74
2024/04/14 10:54:56;;;;;;;7.68;1.98;;;;;;;17.01;54.99;98144.19;5319857;26;20020;-75
2024/04/14 10:57:22;;;;;;;9.48;1.60;;;;;;;17.54;54.38;98184.41;5318774;26;20001;-75
2024/04/14 10:59:48;;;;;;;;;;;;;;;17.98;54.05;98293.72;5323011;26;20001;-75
2024/04/14 11:02:14;;;;;;;6.03;1.55;;;;;;;18.22;55.29;98605.34;5336371;26;19933;-74
2024/04/14 11:04:40;;;;;;;6.65;1.52;;;;;;;18.16;53.79;98268.84;5327447;26;19996;-74
2024/04/14 11:07:07;;;;;;;8.80;1.90;;;;;;;17.80;52.28;97887.56;5319787;26;20483;-75
2024/04/14 11:09:34;;;;;;;6.90;1.50;;;;;;;18.38;53.00;98228.03;5315780;26;20001;-74
2024/04/14 11:12:00;;;;;;;6.10;1.60;;;;;;;18.40;53.32;98328.50;5313426;26;20474;-73
2024/04/14 11:14:25;;;;;;;;;;;;;;;17.58;53.19;97969.66;5327038;26;19996;-74
2024/04/14 11:16:51;;;;;;;7.10;1.85;;;;;;;17.73;53.50;98130.69;5307651;26;19933;-74
2024/04/14 11:19:16;;;;;;;5.87;1.63;;;;;;;17.56;53.30;98042.00;5330923;26;19997;-74